createdAt,value
2019-05-18T00:00:02.984Z,7.45
2019-05-18T00:05:02.831Z,7.42
2019-05-18T00:10:03.363Z,7.58
2019-05-18T00:15:02.904Z,7.83
2019-05-18T00:20:03.433Z,7.35
2019-05-18T00:25:02.949Z,6.65
2019-05-18T00:30:03.414Z,7.75
2019-05-18T00:35:02.915Z,8.13
2019-05-18T00:40:03.367Z,9.88
2019-05-18T00:45:02.891Z,8.60
2019-05-18T00:50:03.441Z,8.83
2019-05-18T00:55:02.915Z,9.13
2019-05-18T01:00:03.419Z,8.73
2019-05-18T01:05:02.917Z,8.58
2019-05-18T01:10:03.363Z,8.13
2019-05-18T01:15:02.887Z,8.33
2019-05-18T01:20:03.429Z,8.38
2019-05-18T01:25:02.947Z,7.58
2019-05-18T01:30:02.628Z,0
2019-05-18T01:35:02.369Z,0
2019-05-18T01:40:02.935Z,9.15
2019-05-18T01:45:15.868Z,7.70
2019-05-18T01:50:02.765Z,9.65
2019-05-18T01:55:03.248Z,8.95
2019-05-18T02:00:02.901Z,8.05
2019-05-18T02:05:02.549Z,7.90
2019-05-18T02:10:03.034Z,9.48
2019-05-18T02:15:02.532Z,10.25
2019-05-18T02:20:03.023Z,10.00
2019-05-18T02:25:02.495Z,10.48
2019-05-18T02:30:02.984Z,11.33
2019-05-18T02:35:02.543Z,9.25
2019-05-18T02:40:03.090Z,8.58
2019-05-18T02:45:02.575Z,7.85
2019-05-18T02:50:03.115Z,8.98
2019-05-18T02:55:02.753Z,8.73
2019-05-18T03:00:03.301Z,10.70
2019-05-18T03:05:02.797Z,8.15
2019-05-18T03:10:03.363Z,10.80
2019-05-18T03:15:02.872Z,12.20
2019-05-18T03:20:03.327Z,10.60
2019-05-18T03:25:02.864Z,12.50
2019-05-18T03:30:03.402Z,8.80
2019-05-18T03:36:06.844Z,10.88
2019-05-18T03:40:03.339Z,9.68
2019-05-18T03:45:02.773Z,11.15
2019-05-18T03:50:03.217Z,11.12
2019-05-18T03:55:02.738Z,10.08
2019-05-18T04:00:03.293Z,10.65
2019-05-18T04:05:02.816Z,7.83
2019-05-18T04:10:03.296Z,10.20
2019-05-18T04:15:02.768Z,10.78
2019-05-18T04:20:03.316Z,9.75
2019-05-18T04:25:02.839Z,9.50
2019-05-18T04:30:02.664Z,8.18
2019-05-18T04:35:03.208Z,9.63
2019-05-18T04:40:02.748Z,7.83
2019-05-18T04:45:03.280Z,8.13
2019-05-18T04:50:05.783Z,0
2019-05-18T04:55:02.629Z,8.83
2019-05-18T05:00:03.168Z,7.87
2019-05-18T05:05:02.729Z,9.88
2019-05-18T05:10:04.759Z,7.65
2019-05-18T05:15:03.373Z,9.48
2019-05-18T05:20:02.891Z,11.57
2019-05-18T05:25:03.478Z,10.90
2019-05-18T05:30:02.961Z,12.25
2019-05-18T05:35:03.570Z,10.13
2019-05-18T05:40:03.128Z,9.83
2019-05-18T05:45:02.577Z,11.75
2019-05-18T05:50:03.104Z,9.33
2019-05-18T05:55:02.629Z,10.78
2019-05-18T06:00:03.089Z,10.58
2019-05-18T06:05:02.542Z,10.10
2019-05-18T06:10:03.026Z,10.68
2019-05-18T06:15:02.545Z,10.85
2019-05-18T06:20:03.089Z,9.58
2019-05-18T06:25:04.208Z,10.32
2019-05-18T06:30:02.640Z,11.70
2019-05-18T06:35:03.203Z,11.50
2019-05-18T06:40:02.717Z,10.45
2019-05-18T06:45:03.161Z,13.60
2019-05-18T06:50:02.673Z,13.13
2019-05-18T06:55:03.440Z,12.07
2019-05-18T07:00:02.983Z,12.93
2019-05-18T07:05:02.480Z,12.05
2019-05-18T07:10:03.035Z,12.70
2019-05-18T07:15:02.656Z,11.55
2019-05-18T07:20:03.213Z,10.25
2019-05-18T07:25:02.857Z,10.53
2019-05-18T07:30:03.364Z,12.20
2019-05-18T07:35:02.886Z,11.35
2019-05-18T07:40:03.442Z,10.75
2019-05-18T07:45:02.965Z,11.38
2019-05-18T07:50:02.712Z,11.12
2019-05-18T07:55:03.177Z,10.45
2019-05-18T08:00:02.660Z,8.13
2019-05-18T08:05:03.201Z,10.65
2019-05-18T08:10:02.809Z,14.38
2019-05-18T08:15:03.387Z,10.45
2019-05-18T08:20:02.973Z,10.45
2019-05-18T08:25:02.527Z,9.20
2019-05-18T08:30:03.048Z,10.48
2019-05-18T08:35:02.538Z,13.45
2019-05-18T08:40:03.119Z,9.68
2019-05-18T08:45:02.628Z,11.93
2019-05-18T08:50:03.171Z,9.73
2019-05-18T08:55:02.742Z,9.88
2019-05-18T09:00:03.260Z,9.93
2019-05-18T09:05:04.816Z,13.05
2019-05-18T09:10:02.708Z,10.28
2019-05-18T09:15:03.199Z,12.75
2019-05-18T09:20:02.794Z,9.95
2019-05-18T09:25:03.338Z,8.60
2019-05-18T09:30:03.127Z,8.53
2019-05-18T09:35:02.699Z,9.15
2019-05-18T09:40:03.202Z,8.48
2019-05-18T09:45:02.748Z,9.38
2019-05-18T09:50:03.320Z,10.28
2019-05-18T09:55:02.784Z,8.70
2019-05-18T10:00:03.344Z,9.05
2019-05-18T10:05:02.852Z,8.78
2019-05-18T10:10:03.410Z,8.63
2019-05-18T10:15:03.071Z,8.08
2019-05-18T10:20:02.646Z,9.05
2019-05-18T10:25:03.220Z,14.93
2019-05-18T10:30:02.776Z,14.60
2019-05-18T10:35:03.269Z,11.38
2019-05-18T10:40:02.812Z,11.80
2019-05-18T10:45:03.326Z,10.55
2019-05-18T10:50:02.862Z,7.75
2019-05-18T10:55:03.390Z,12.70
2019-05-18T11:00:02.921Z,14.13
2019-05-18T11:05:02.466Z,12.40
2019-05-18T11:10:02.968Z,10.10
2019-05-18T11:15:02.549Z,10.72
2019-05-18T11:20:03.077Z,9.80
2019-05-18T11:25:02.594Z,8.85
2019-05-18T11:30:03.184Z,9.73
2019-05-18T11:35:02.767Z,9.95
2019-05-18T11:40:03.318Z,8.80
2019-05-18T11:45:02.818Z,8.28
2019-05-18T11:50:03.405Z,8.45
2019-05-18T11:55:02.965Z,8.03
2019-05-18T12:00:02.521Z,12.55
2019-05-18T12:05:03.043Z,14.05
2019-05-18T12:10:02.570Z,10.88
2019-05-18T12:15:03.097Z,13.98
2019-05-18T12:20:03.574Z,11.50
2019-05-18T12:25:03.081Z,9.98
2019-05-18T12:30:02.618Z,7.95
2019-05-18T12:35:02.307Z,0
2019-05-18T12:40:02.854Z,10.13
2019-05-18T12:45:03.404Z,11.50
2019-05-18T12:50:02.915Z,12.10
2019-05-18T12:55:03.457Z,7.00
2019-05-18T13:00:02.983Z,7.80
2019-05-18T13:05:02.492Z,7.33
2019-05-18T13:10:34.577Z,8.35
2019-05-18T13:15:03.179Z,7.12
2019-05-18T13:20:02.700Z,7.08
2019-05-18T13:25:03.239Z,6.00
2019-05-18T13:30:02.727Z,8.85
2019-05-18T13:35:03.302Z,8.13
2019-05-18T13:40:02.738Z,8.43
2019-05-18T13:45:03.266Z,7.00
2019-05-18T13:50:02.737Z,7.28
2019-05-18T13:55:04.795Z,8.25
2019-05-18T14:00:02.655Z,6.47
2019-05-18T14:05:03.207Z,3.92
2019-05-18T14:10:02.667Z,3.62
2019-05-18T14:15:03.157Z,4.00
2019-05-18T14:20:02.701Z,3.70
2019-05-18T14:25:18.256Z,5.53
2019-05-18T14:30:03.112Z,3.77
2019-05-18T14:35:02.629Z,4.58
2019-05-18T14:40:03.220Z,5.30
2019-05-18T14:45:02.694Z,4.53
2019-05-18T14:50:03.187Z,4.08
2019-05-18T14:55:02.739Z,3.35
2019-05-18T15:00:03.345Z,3.55
2019-05-18T15:05:02.842Z,3.95
2019-05-18T15:10:03.422Z,3.15
2019-05-18T15:15:02.944Z,3.30
2019-05-18T15:20:03.484Z,3.30
2019-05-18T15:25:03.064Z,3.00
2019-05-18T15:30:02.673Z,4.37
2019-05-18T15:35:03.256Z,4.08
2019-05-18T15:40:02.760Z,4.12
2019-05-18T15:45:02.652Z,0
2019-05-18T15:50:03.263Z,3.83
2019-05-18T15:55:02.716Z,3.15
2019-05-18T16:00:06.460Z,3.15
2019-05-18T16:05:03.268Z,3.55
2019-05-18T16:10:02.770Z,4.42
2019-05-18T16:15:02.538Z,0
2019-05-18T16:20:03.421Z,4.50
2019-05-18T16:25:03.002Z,4.33
2019-05-18T16:30:02.500Z,4.53
2019-05-18T16:35:03.125Z,4.55
2019-05-18T16:40:02.664Z,3.72
2019-05-18T16:45:03.161Z,4.00
2019-05-18T16:50:02.729Z,4.00
2019-05-18T16:55:03.314Z,3.80
2019-05-18T17:00:02.806Z,4.70
2019-05-18T17:05:03.375Z,4.10
2019-05-18T17:10:02.881Z,3.65
2019-05-18T17:15:03.685Z,4.45
2019-05-18T17:20:03.268Z,3.98
2019-05-18T17:25:02.756Z,4.90
2019-05-18T17:30:03.354Z,5.15
2019-05-18T17:35:02.821Z,4.72
2019-05-18T17:40:03.404Z,4.85
2019-05-18T17:45:02.850Z,3.98
2019-05-18T17:50:03.489Z,3.37
2019-05-18T17:55:02.943Z,3.90
2019-05-18T18:00:03.445Z,4.55
2019-05-18T18:05:02.888Z,5.10
2019-05-18T18:10:03.504Z,4.37
2019-05-18T18:15:02.997Z,5.17
2019-05-18T18:20:02.509Z,5.45
2019-05-18T18:25:03.065Z,4.58
2019-05-18T18:30:02.585Z,3.75
2019-05-18T18:35:03.125Z,3.10
2019-05-18T18:40:02.653Z,2.60
2019-05-18T18:45:02.317Z,0
2019-05-18T18:50:02.859Z,3.58
2019-05-18T18:55:03.340Z,3.85
2019-05-18T19:00:02.877Z,3.25
2019-05-18T19:05:03.513Z,3.15
2019-05-18T19:10:03.091Z,3.40
2019-05-18T19:15:02.564Z,3.50
2019-05-18T19:20:03.143Z,3.67
2019-05-18T19:25:02.613Z,3.77
2019-05-18T19:30:03.430Z,3.20
2019-05-18T19:35:03.068Z,4.05
2019-05-18T19:40:02.637Z,3.25
2019-05-18T19:45:03.224Z,2.30
2019-05-18T19:50:02.829Z,2.67
2019-05-18T19:55:03.323Z,2.75
2019-05-18T20:00:03.004Z,2.60
2019-05-18T20:05:07.947Z,2.40
2019-05-18T20:10:03.168Z,2.80
2019-05-18T20:15:02.691Z,3.05
2019-05-18T20:20:03.250Z,3.05
2019-05-18T20:25:02.838Z,3.30
2019-05-18T20:30:03.425Z,3.25
2019-05-18T20:35:02.900Z,3.00
2019-05-18T20:40:03.485Z,2.75
2019-05-18T20:45:02.967Z,3.30
2019-05-18T20:50:02.484Z,3.00
2019-05-18T20:55:03.046Z,2.80
2019-05-18T21:00:02.618Z,3.67
2019-05-18T21:05:03.301Z,3.10
2019-05-18T21:10:02.773Z,3.37
2019-05-18T21:15:02.795Z,0
2019-05-18T21:20:03.324Z,3.40
2019-05-18T21:25:02.805Z,3.08
2019-05-18T21:30:03.287Z,3.60
2019-05-18T21:35:02.799Z,3.72
2019-05-18T21:40:03.457Z,3.40
2019-05-18T21:45:03.036Z,3.50
2019-05-18T21:50:02.577Z,3.35
2019-05-18T21:55:03.060Z,3.37
2019-05-18T22:00:02.672Z,3.62
2019-05-18T22:05:03.186Z,4.22
2019-05-18T22:10:01.846Z,0
2019-05-18T22:15:03.407Z,4.60
2019-05-18T22:20:02.872Z,4.58
2019-05-18T22:25:03.456Z,4.10
2019-05-18T22:30:02.927Z,4.50
2019-05-18T22:35:03.482Z,4.60
2019-05-18T22:40:03.017Z,4.15
2019-05-18T22:45:02.474Z,4.45
2019-05-18T22:50:02.980Z,3.60
2019-05-18T22:55:02.442Z,3.70
2019-05-18T23:00:08.037Z,3.50
2019-05-18T23:05:03.382Z,4.70
2019-05-18T23:10:02.956Z,4.47
2019-05-18T23:15:03.449Z,5.58
2019-05-18T23:20:02.960Z,5.92
2019-05-18T23:25:03.513Z,5.35
2019-05-18T23:30:03.020Z,4.87
2019-05-18T23:35:02.555Z,4.83
2019-05-18T23:40:03.106Z,5.00
2019-05-18T23:45:02.608Z,4.75
2019-05-18T23:50:03.057Z,5.30
2019-05-18T23:55:02.694Z,6.20
